sensor_id;sensor_type;location;lat;lon;timestamp;P1;durP1;ratioP1;P2;durP2;ratioP2
21513;SDS011;10918;48.102;11.636;2024-02-28T00:00:27;18.15;;;13.20;;
21513;SDS011;10918;48.102;11.636;2024-02-28T00:02:53;18.75;;;12.63;;
21513;SDS011;10918;48.102;11.636;2024-02-28T00:05:19;18.92;;;12.95;;
21513;SDS011;10918;48.102;11.636;2024-02-28T00:07:45;16.15;;;13.10;;
21513;SDS011;10918;48.102;11.636;2024-02-28T00:10:12;18.42;;;13.45;;
21513;SDS011;10918;48.102;11.636;2024-02-28T00:12:38;20.08;;;14.43;;
21513;SDS011;10918;48.102;11.636;2024-02-28T00:15:05;15.90;;;12.77;;
21513;SDS011;10918;48.102;11.636;2024-02-28T00:17:37;16.88;;;13.10;;
21513;SDS011;10918;48.102;11.636;2024-02-28T00:20:04;18.50;;;12.73;;
21513;SDS011;10918;48.102;11.636;2024-02-28T00:22:30;17.70;;;13.82;;
21513;SDS011;10918;48.102;11.636;2024-02-28T00:24:56;19.75;;;14.10;;
21513;SDS011;10918;48.102;11.636;2024-02-28T00:27:22;20.42;;;14.10;;
21513;SDS011;10918;48.102;11.636;2024-02-28T00:29:48;18.73;;;14.07;;
21513;SDS011;10918;48.102;11.636;2024-02-28T00:32:14;22.42;;;15.73;;
21513;SDS011;10918;48.102;11.636;2024-02-28T00:34:40;19.98;;;15.27;;
21513;SDS011;10918;48.102;11.636;2024-02-28T00:37:06;19.25;;;14.18;;
21513;SDS011;10918;48.102;11.636;2024-02-28T00:39:32;21.95;;;14.75;;
21513;SDS011;10918;48.102;11.636;2024-02-28T00:41:58;24.52;;;16.27;;
21513;SDS011;10918;48.102;11.636;2024-02-28T00:44:24;23.95;;;15.85;;
21513;SDS011;10918;48.102;11.636;2024-02-28T00:46:50;23.00;;;14.85;;
21513;SDS011;10918;48.102;11.636;2024-02-28T00:49:16;23.70;;;15.75;;
21513;SDS011;10918;48.102;11.636;2024-02-28T00:51:42;22.55;;;15.93;;
21513;SDS011;10918;48.102;11.636;2024-02-28T00:54:08;21.33;;;15.52;;
21513;SDS011;10918;48.102;11.636;2024-02-28T00:56:34;22.90;;;15.73;;
21513;SDS011;10918;48.102;11.636;2024-02-28T00:59:00;26.08;;;15.77;;
21513;SDS011;10918;48.102;11.636;2024-02-28T01:01:26;22.40;;;16.17;;
21513;SDS011;10918;48.102;11.636;2024-02-28T01:03:52;21.83;;;15.40;;
21513;SDS011;10918;48.102;11.636;2024-02-28T01:06:18;22.83;;;15.85;;
21513;SDS011;10918;48.102;11.636;2024-02-28T01:08:44;22.35;;;16.13;;
21513;SDS011;10918;48.102;11.636;2024-02-28T01:11:10;22.42;;;16.13;;
21513;SDS011;10918;48.102;11.636;2024-02-28T01:13:36;22.02;;;16.63;;
21513;SDS011;10918;48.102;11.636;2024-02-28T01:16:02;21.88;;;16.30;;
21513;SDS011;10918;48.102;11.636;2024-02-28T01:18:28;19.10;;;15.38;;
21513;SDS011;10918;48.102;11.636;2024-02-28T01:20:56;24.67;;;16.17;;
21513;SDS011;10918;48.102;11.636;2024-02-28T01:23:22;23.80;;;16.17;;
21513;SDS011;10918;48.102;11.636;2024-02-28T01:25:48;19.17;;;14.05;;
21513;SDS011;10918;48.102;11.636;2024-02-28T01:28:14;19.05;;;14.25;;
21513;SDS011;10918;48.102;11.636;2024-02-28T01:30:40;23.08;;;14.63;;
21513;SDS011;10918;48.102;11.636;2024-02-28T01:33:06;18.38;;;14.02;;
21513;SDS011;10918;48.102;11.636;2024-02-28T01:35:31;21.67;;;14.35;;
21513;SDS011;10918;48.102;11.636;2024-02-28T01:37:57;19.52;;;14.65;;
21513;SDS011;10918;48.102;11.636;2024-02-28T01:40:23;19.92;;;14.93;;
21513;SDS011;10918;48.102;11.636;2024-02-28T01:42:49;20.02;;;13.65;;
21513;SDS011;10918;48.102;11.636;2024-02-28T01:45:15;20.25;;;15.00;;
21513;SDS011;10918;48.102;11.636;2024-02-28T01:47:41;18.38;;;14.50;;
21513;SDS011;10918;48.102;11.636;2024-02-28T01:50:08;19.27;;;13.57;;
21513;SDS011;10918;48.102;11.636;2024-02-28T01:52:35;19.85;;;14.40;;
21513;SDS011;10918;48.102;11.636;2024-02-28T01:55:02;17.83;;;13.38;;
21513;SDS011;10918;48.102;11.636;2024-02-28T01:57:28;18.13;;;12.88;;
21513;SDS011;10918;48.102;11.636;2024-02-28T01:59:55;20.77;;;14.27;;
21513;SDS011;10918;48.102;11.636;2024-02-28T02:02:22;18.48;;;14.07;;
21513;SDS011;10918;48.102;11.636;2024-02-28T02:04:48;18.48;;;14.88;;
21513;SDS011;10918;48.102;11.636;2024-02-28T02:07:14;19.05;;;13.85;;
21513;SDS011;10918;48.102;11.636;2024-02-28T02:09:40;19.63;;;14.00;;
21513;SDS011;10918;48.102;11.636;2024-02-28T02:12:06;18.35;;;12.73;;
21513;SDS011;10918;48.102;11.636;2024-02-28T02:14:32;18.23;;;13.63;;
21513;SDS011;10918;48.102;11.636;2024-02-28T02:16:58;19.40;;;14.43;;
21513;SDS011;10918;48.102;11.636;2024-02-28T02:19:24;19.92;;;14.90;;
21513;SDS011;10918;48.102;11.636;2024-02-28T02:21:52;20.30;;;14.60;;
21513;SDS011;10918;48.102;11.636;2024-02-28T02:24:19;18.70;;;14.57;;
21513;SDS011;10918;48.102;11.636;2024-02-28T02:26:45;17.65;;;13.65;;
21513;SDS011;10918;48.102;11.636;2024-02-28T02:29:11;18.83;;;13.25;;
21513;SDS011;10918;48.102;11.636;2024-02-28T02:31:38;19.17;;;14.05;;
21513;SDS011;10918;48.102;11.636;2024-02-28T02:34:05;19.20;;;14.35;;
21513;SDS011;10918;48.102;11.636;2024-02-28T02:36:31;20.95;;;15.30;;
21513;SDS011;10918;48.102;11.636;2024-02-28T02:38:57;19.95;;;14.73;;
21513;SDS011;10918;48.102;11.636;2024-02-28T02:41:23;18.83;;;14.48;;
21513;SDS011;10918;48.102;11.636;2024-02-28T02:43:49;18.77;;;14.23;;
21513;SDS011;10918;48.102;11.636;2024-02-28T02:46:15;22.05;;;15.48;;
21513;SDS011;10918;48.102;11.636;2024-02-28T02:48:41;21.88;;;15.25;;
21513;SDS011;10918;48.102;11.636;2024-02-28T02:51:07;19.08;;;14.90;;
21513;SDS011;10918;48.102;11.636;2024-02-28T02:53:33;20.27;;;16.05;;
21513;SDS011;10918;48.102;11.636;2024-02-28T02:55:59;21.33;;;15.25;;
21513;SDS011;10918;48.102;11.636;2024-02-28T02:58:25;21.63;;;15.82;;
21513;SDS011;10918;48.102;11.636;2024-02-28T03:00:51;20.88;;;15.52;;
21513;SDS011;10918;48.102;11.636;2024-02-28T03:03:17;23.13;;;16.40;;
21513;SDS011;10918;48.102;11.636;2024-02-28T03:05:42;23.40;;;17.38;;
21513;SDS011;10918;48.102;11.636;2024-02-28T03:08:08;24.75;;;17.77;;
21513;SDS011;10918;48.102;11.636;2024-02-28T03:10:34;23.38;;;18.10;;
21513;SDS011;10918;48.102;11.636;2024-02-28T03:13:00;26.30;;;18.75;;
21513;SDS011;10918;48.102;11.636;2024-02-28T03:15:27;25.85;;;18.23;;
21513;SDS011;10918;48.102;11.636;2024-02-28T03:17:53;28.92;;;20.40;;
21513;SDS011;10918;48.102;11.636;2024-02-28T03:20:19;25.15;;;18.95;;
21513;SDS011;10918;48.102;11.636;2024-02-28T03:22:45;27.58;;;20.05;;
21513;SDS011;10918;48.102;11.636;2024-02-28T03:25:11;30.10;;;20.20;;
21513;SDS011;10918;48.102;11.636;2024-02-28T03:27:37;27.38;;;20.58;;
21513;SDS011;10918;48.102;11.636;2024-02-28T03:30:03;27.65;;;19.58;;
21513;SDS011;10918;48.102;11.636;2024-02-28T03:32:29;25.95;;;19.35;;
21513;SDS011;10918;48.102;11.636;2024-02-28T03:34:55;27.15;;;19.95;;
21513;SDS011;10918;48.102;11.636;2024-02-28T03:37:21;28.25;;;20.05;;
21513;SDS011;10918;48.102;11.636;2024-02-28T03:39:47;27.30;;;19.52;;
21513;SDS011;10918;48.102;11.636;2024-02-28T03:42:13;28.73;;;19.67;;
21513;SDS011;10918;48.102;11.636;2024-02-28T03:44:39;26.20;;;20.00;;
21513;SDS011;10918;48.102;11.636;2024-02-28T03:47:05;30.70;;;20.33;;
21513;SDS011;10918;48.102;11.636;2024-02-28T03:49:30;32.95;;;21.55;;
21513;SDS011;10918;48.102;11.636;2024-02-28T03:51:56;29.67;;;20.90;;
21513;SDS011;10918;48.102;11.636;2024-02-28T03:54:22;29.70;;;20.55;;
21513;SDS011;10918;48.102;11.636;2024-02-28T03:56:48;30.65;;;20.10;;
21513;SDS011;10918;48.102;11.636;2024-02-28T03:59:14;31.17;;;20.75;;
21513;SDS011;10918;48.102;11.636;2024-02-28T04:01:40;30.27;;;20.10;;
21513;SDS011;10918;48.102;11.636;2024-02-28T04:04:06;29.35;;;19.55;;
21513;SDS011;10918;48.102;11.636;2024-02-28T04:06:32;30.30;;;20.05;;
21513;SDS011;10918;48.102;11.636;2024-02-28T04:08:58;30.63;;;20.83;;
21513;SDS011;10918;48.102;11.636;2024-02-28T04:11:25;25.88;;;18.25;;
21513;SDS011;10918;48.102;11.636;2024-02-28T04:13:51;30.20;;;20.25;;
21513;SDS011;10918;48.102;11.636;2024-02-28T04:16:17;28.77;;;19.35;;
21513;SDS011;10918;48.102;11.636;2024-02-28T04:18:44;28.80;;;18.85;;
21513;SDS011;10918;48.102;11.636;2024-02-28T04:21:10;27.48;;;19.50;;
21513;SDS011;10918;48.102;11.636;2024-02-28T04:23:36;26.88;;;19.08;;
21513;SDS011;10918;48.102;11.636;2024-02-28T04:26:03;24.90;;;18.10;;
21513;SDS011;10918;48.102;11.636;2024-02-28T04:28:29;26.80;;;17.90;;
21513;SDS011;10918;48.102;11.636;2024-02-28T04:30:55;27.00;;;18.83;;
21513;SDS011;10918;48.102;11.636;2024-02-28T04:33:21;26.52;;;17.55;;
21513;SDS011;10918;48.102;11.636;2024-02-28T04:35:47;26.55;;;18.92;;
21513;SDS011;10918;48.102;11.636;2024-02-28T04:38:14;26.08;;;18.65;;
21513;SDS011;10918;48.102;11.636;2024-02-28T04:40:40;28.10;;;19.05;;
21513;SDS011;10918;48.102;11.636;2024-02-28T04:43:06;25.48;;;17.63;;
21513;SDS011;10918;48.102;11.636;2024-02-28T04:45:32;25.25;;;18.27;;
21513;SDS011;10918;48.102;11.636;2024-02-28T04:47:58;29.15;;;19.67;;
21513;SDS011;10918;48.102;11.636;2024-02-28T04:50:24;30.20;;;19.20;;
21513;SDS011;10918;48.102;11.636;2024-02-28T04:52:50;28.27;;;19.85;;
21513;SDS011;10918;48.102;11.636;2024-02-28T04:55:16;26.77;;;19.38;;
21513;SDS011;10918;48.102;11.636;2024-02-28T04:57:42;31.60;;;21.08;;
21513;SDS011;10918;48.102;11.636;2024-02-28T05:00:08;29.65;;;20.10;;
21513;SDS011;10918;48.102;11.636;2024-02-28T05:02:34;28.70;;;19.35;;
21513;SDS011;10918;48.102;11.636;2024-02-28T05:05:00;29.15;;;19.00;;
21513;SDS011;10918;48.102;11.636;2024-02-28T05:07:26;33.90;;;20.10;;
21513;SDS011;10918;48.102;11.636;2024-02-28T05:09:52;26.98;;;19.30;;
21513;SDS011;10918;48.102;11.636;2024-02-28T05:12:18;29.75;;;21.00;;
21513;SDS011;10918;48.102;11.636;2024-02-28T05:14:44;29.73;;;20.63;;
21513;SDS011;10918;48.102;11.636;2024-02-28T05:17:10;28.73;;;20.10;;
21513;SDS011;10918;48.102;11.636;2024-02-28T05:19:36;31.27;;;20.70;;
21513;SDS011;10918;48.102;11.636;2024-02-28T05:22:02;31.85;;;21.20;;
21513;SDS011;10918;48.102;11.636;2024-02-28T05:24:28;35.65;;;21.73;;
21513;SDS011;10918;48.102;11.636;2024-02-28T05:26:54;29.92;;;20.52;;
21513;SDS011;10918;48.102;11.636;2024-02-28T05:29:20;28.13;;;19.23;;
21513;SDS011;10918;48.102;11.636;2024-02-28T05:31:46;30.15;;;20.67;;
21513;SDS011;10918;48.102;11.636;2024-02-28T05:34:12;29.73;;;20.83;;
21513;SDS011;10918;48.102;11.636;2024-02-28T05:36:40;30.67;;;21.40;;
21513;SDS011;10918;48.102;11.636;2024-02-28T05:39:06;30.00;;;21.15;;
21513;SDS011;10918;48.102;11.636;2024-02-28T05:41:33;27.48;;;20.35;;
21513;SDS011;10918;48.102;11.636;2024-02-28T05:43:59;30.15;;;20.88;;
21513;SDS011;10918;48.102;11.636;2024-02-28T05:46:25;34.05;;;22.80;;
21513;SDS011;10918;48.102;11.636;2024-02-28T05:48:51;29.50;;;19.73;;
21513;SDS011;10918;48.102;11.636;2024-02-28T05:51:17;32.05;;;20.60;;
21513;SDS011;10918;48.102;11.636;2024-02-28T05:53:43;38.33;;;20.83;;
21513;SDS011;10918;48.102;11.636;2024-02-28T05:56:09;40.30;;;22.38;;
21513;SDS011;10918;48.102;11.636;2024-02-28T05:58:48;30.05;;;20.25;;
21513;SDS011;10918;48.102;11.636;2024-02-28T06:01:17;29.63;;;20.23;;
21513;SDS011;10918;48.102;11.636;2024-02-28T06:03:45;30.48;;;22.20;;
21513;SDS011;10918;48.102;11.636;2024-02-28T06:06:11;28.45;;;20.42;;
21513;SDS011;10918;48.102;11.636;2024-02-28T06:08:38;33.17;;;21.55;;
21513;SDS011;10918;48.102;11.636;2024-02-28T06:11:05;30.75;;;20.65;;
21513;SDS011;10918;48.102;11.636;2024-02-28T06:13:31;30.40;;;21.02;;
21513;SDS011;10918;48.102;11.636;2024-02-28T06:15:58;30.88;;;20.98;;
21513;SDS011;10918;48.102;11.636;2024-02-28T06:18:25;34.13;;;21.27;;
21513;SDS011;10918;48.102;11.636;2024-02-28T06:20:55;30.17;;;20.23;;
21513;SDS011;10918;48.102;11.636;2024-02-28T06:23:22;31.23;;;20.27;;
21513;SDS011;10918;48.102;11.636;2024-02-28T06:25:48;29.60;;;19.92;;
21513;SDS011;10918;48.102;11.636;2024-02-28T06:28:14;33.00;;;21.75;;
21513;SDS011;10918;48.102;11.636;2024-02-28T06:30:40;30.65;;;21.50;;
21513;SDS011;10918;48.102;11.636;2024-02-28T06:33:06;29.95;;;20.98;;
21513;SDS011;10918;48.102;11.636;2024-02-28T06:35:33;35.83;;;21.90;;
21513;SDS011;10918;48.102;11.636;2024-02-28T06:37:59;30.83;;;21.80;;
21513;SDS011;10918;48.102;11.636;2024-02-28T06:40:25;31.52;;;22.05;;
21513;SDS011;10918;48.102;11.636;2024-02-28T06:42:53;31.98;;;21.67;;
21513;SDS011;10918;48.102;11.636;2024-02-28T06:45:19;33.28;;;21.75;;
21513;SDS011;10918;48.102;11.636;2024-02-28T06:47:46;33.05;;;21.45;;
21513;SDS011;10918;48.102;11.636;2024-02-28T06:50:12;30.17;;;21.95;;
21513;SDS011;10918;48.102;11.636;2024-02-28T06:52:38;35.38;;;22.77;;
21513;SDS011;10918;48.102;11.636;2024-02-28T06:55:04;34.38;;;22.17;;
21513;SDS011;10918;48.102;11.636;2024-02-28T06:57:35;35.30;;;21.65;;
21513;SDS011;10918;48.102;11.636;2024-02-28T07:00:01;39.53;;;22.38;;
21513;SDS011;10918;48.102;11.636;2024-02-28T07:02:27;36.60;;;23.15;;
21513;SDS011;10918;48.102;11.636;2024-02-28T07:04:53;36.33;;;23.80;;
21513;SDS011;10918;48.102;11.636;2024-02-28T07:07:19;35.78;;;22.55;;
21513;SDS011;10918;48.102;11.636;2024-02-28T07:09:45;35.42;;;23.20;;
21513;SDS011;10918;48.102;11.636;2024-02-28T07:12:11;33.75;;;22.77;;
21513;SDS011;10918;48.102;11.636;2024-02-28T07:14:37;36.17;;;22.35;;
21513;SDS011;10918;48.102;11.636;2024-02-28T07:17:03;33.20;;;22.23;;
21513;SDS011;10918;48.102;11.636;2024-02-28T07:19:29;42.88;;;23.52;;
21513;SDS011;10918;48.102;11.636;2024-02-28T07:21:55;36.97;;;23.55;;
21513;SDS011;10918;48.102;11.636;2024-02-28T07:24:21;37.42;;;23.92;;
21513;SDS011;10918;48.102;11.636;2024-02-28T07:26:47;36.58;;;23.95;;
21513;SDS011;10918;48.102;11.636;2024-02-28T07:29:14;40.28;;;24.33;;
21513;SDS011;10918;48.102;11.636;2024-02-28T07:31:40;35.85;;;22.23;;
21513;SDS011;10918;48.102;11.636;2024-02-28T07:34:06;34.58;;;23.40;;
21513;SDS011;10918;48.102;11.636;2024-02-28T07:36:33;38.58;;;23.77;;
21513;SDS011;10918;48.102;11.636;2024-02-28T07:38:59;39.40;;;24.38;;
21513;SDS011;10918;48.102;11.636;2024-02-28T07:41:25;38.55;;;22.77;;
21513;SDS011;10918;48.102;11.636;2024-02-28T07:43:51;36.00;;;22.83;;
21513;SDS011;10918;48.102;11.636;2024-02-28T07:46:17;38.90;;;23.02;;
21513;SDS011;10918;48.102;11.636;2024-02-28T07:48:43;33.47;;;22.23;;
21513;SDS011;10918;48.102;11.636;2024-02-28T07:51:09;36.67;;;23.55;;
21513;SDS011;10918;48.102;11.636;2024-02-28T07:53:35;36.58;;;23.38;;
21513;SDS011;10918;48.102;11.636;2024-02-28T07:56:01;37.22;;;24.02;;
21513;SDS011;10918;48.102;11.636;2024-02-28T07:58:27;37.97;;;24.48;;
21513;SDS011;10918;48.102;11.636;2024-02-28T08:00:53;36.88;;;22.25;;
21513;SDS011;10918;48.102;11.636;2024-02-28T08:03:19;40.92;;;24.75;;
21513;SDS011;10918;48.102;11.636;2024-02-28T08:05:46;38.88;;;22.83;;
21513;SDS011;10918;48.102;11.636;2024-02-28T08:08:13;37.03;;;23.75;;
21513;SDS011;10918;48.102;11.636;2024-02-28T08:10:39;37.67;;;23.52;;
21513;SDS011;10918;48.102;11.636;2024-02-28T08:13:05;39.22;;;23.63;;
21513;SDS011;10918;48.102;11.636;2024-02-28T08:15:32;37.83;;;23.50;;
21513;SDS011;10918;48.102;11.636;2024-02-28T08:17:58;36.20;;;23.13;;
21513;SDS011;10918;48.102;11.636;2024-02-28T08:20:24;37.33;;;22.88;;
21513;SDS011;10918;48.102;11.636;2024-02-28T08:22:51;37.08;;;22.23;;
21513;SDS011;10918;48.102;11.636;2024-02-28T08:25:17;39.17;;;23.35;;
21513;SDS011;10918;48.102;11.636;2024-02-28T08:27:43;38.00;;;24.02;;
21513;SDS011;10918;48.102;11.636;2024-02-28T08:30:10;42.22;;;24.40;;
21513;SDS011;10918;48.102;11.636;2024-02-28T08:32:36;36.55;;;23.88;;
21513;SDS011;10918;48.102;11.636;2024-02-28T08:35:02;42.38;;;25.77;;
21513;SDS011;10918;48.102;11.636;2024-02-28T08:37:28;40.42;;;23.48;;
21513;SDS011;10918;48.102;11.636;2024-02-28T08:39:55;37.03;;;23.02;;
21513;SDS011;10918;48.102;11.636;2024-02-28T08:42:24;36.78;;;23.65;;
21513;SDS011;10918;48.102;11.636;2024-02-28T08:44:50;42.13;;;24.27;;
21513;SDS011;10918;48.102;11.636;2024-02-28T08:47:16;37.17;;;22.77;;
21513;SDS011;10918;48.102;11.636;2024-02-28T08:49:43;42.08;;;24.23;;
21513;SDS011;10918;48.102;11.636;2024-02-28T08:52:09;41.50;;;24.33;;
21513;SDS011;10918;48.102;11.636;2024-02-28T08:54:35;39.15;;;24.00;;
21513;SDS011;10918;48.102;11.636;2024-02-28T08:57:01;37.42;;;24.15;;
21513;SDS011;10918;48.102;11.636;2024-02-28T08:59:28;36.95;;;23.65;;
21513;SDS011;10918;48.102;11.636;2024-02-28T09:01:54;38.75;;;24.70;;
21513;SDS011;10918;48.102;11.636;2024-02-28T09:04:20;38.95;;;24.55;;
21513;SDS011;10918;48.102;11.636;2024-02-28T09:06:46;40.78;;;25.10;;
21513;SDS011;10918;48.102;11.636;2024-02-28T09:09:12;44.33;;;25.55;;
21513;SDS011;10918;48.102;11.636;2024-02-28T09:11:39;39.22;;;24.38;;
21513;SDS011;10918;48.102;11.636;2024-02-28T09:14:05;43.38;;;26.08;;
21513;SDS011;10918;48.102;11.636;2024-02-28T09:16:31;40.40;;;25.10;;
21513;SDS011;10918;48.102;11.636;2024-02-28T09:18:57;37.75;;;24.20;;
21513;SDS011;10918;48.102;11.636;2024-02-28T09:21:23;37.25;;;24.45;;
21513;SDS011;10918;48.102;11.636;2024-02-28T09:23:49;39.30;;;25.25;;
21513;SDS011;10918;48.102;11.636;2024-02-28T09:26:15;38.97;;;24.55;;
21513;SDS011;10918;48.102;11.636;2024-02-28T09:28:41;40.17;;;24.77;;
21513;SDS011;10918;48.102;11.636;2024-02-28T09:31:07;35.70;;;24.55;;
21513;SDS011;10918;48.102;11.636;2024-02-28T09:33:34;40.80;;;25.17;;
21513;SDS011;10918;48.102;11.636;2024-02-28T09:36:01;38.22;;;24.38;;
21513;SDS011;10918;48.102;11.636;2024-02-28T09:38:28;37.55;;;24.30;;
21513;SDS011;10918;48.102;11.636;2024-02-28T09:40:54;35.58;;;24.13;;
21513;SDS011;10918;48.102;11.636;2024-02-28T09:43:30;41.72;;;26.02;;
21513;SDS011;10918;48.102;11.636;2024-02-28T09:45:58;39.08;;;24.88;;
21513;SDS011;10918;48.102;11.636;2024-02-28T09:48:26;37.85;;;25.38;;
21513;SDS011;10918;48.102;11.636;2024-02-28T09:50:58;35.60;;;24.48;;
21513;SDS011;10918;48.102;11.636;2024-02-28T09:53:25;40.17;;;26.25;;
21513;SDS011;10918;48.102;11.636;2024-02-28T09:55:51;38.70;;;24.67;;
21513;SDS011;10918;48.102;11.636;2024-02-28T09:58:18;40.35;;;25.90;;
21513;SDS011;10918;48.102;11.636;2024-02-28T10:00:47;41.67;;;25.17;;
21513;SDS011;10918;48.102;11.636;2024-02-28T10:03:17;44.13;;;27.67;;
21513;SDS011;10918;48.102;11.636;2024-02-28T10:05:48;42.42;;;23.95;;
21513;SDS011;10918;48.102;11.636;2024-02-28T10:08:14;43.88;;;26.13;;
21513;SDS011;10918;48.102;11.636;2024-02-28T10:10:47;40.30;;;25.60;;
21513;SDS011;10918;48.102;11.636;2024-02-28T10:13:13;42.10;;;25.55;;
21513;SDS011;10918;48.102;11.636;2024-02-28T10:15:40;42.28;;;26.10;;
21513;SDS011;10918;48.102;11.636;2024-02-28T10:18:06;42.92;;;26.30;;
21513;SDS011;10918;48.102;11.636;2024-02-28T10:20:32;39.53;;;24.77;;
21513;SDS011;10918;48.102;11.636;2024-02-28T10:22:57;38.05;;;25.05;;
21513;SDS011;10918;48.102;11.636;2024-02-28T10:25:23;48.25;;;26.25;;
21513;SDS011;10918;48.102;11.636;2024-02-28T10:27:51;41.95;;;26.00;;
21513;SDS011;10918;48.102;11.636;2024-02-28T10:30:18;40.10;;;26.15;;
21513;SDS011;10918;48.102;11.636;2024-02-28T10:32:48;39.40;;;25.38;;
21513;SDS011;10918;48.102;11.636;2024-02-28T10:35:15;41.75;;;25.58;;
21513;SDS011;10918;48.102;11.636;2024-02-28T10:37:43;43.83;;;25.20;;
21513;SDS011;10918;48.102;11.636;2024-02-28T10:40:10;44.65;;;27.38;;
21513;SDS011;10918;48.102;11.636;2024-02-28T10:42:37;43.65;;;26.73;;
21513;SDS011;10918;48.102;11.636;2024-02-28T10:45:03;43.78;;;25.45;;
21513;SDS011;10918;48.102;11.636;2024-02-28T10:47:29;40.03;;;25.67;;
21513;SDS011;10918;48.102;11.636;2024-02-28T10:49:55;38.17;;;24.10;;
21513;SDS011;10918;48.102;11.636;2024-02-28T10:52:22;37.33;;;24.25;;
21513;SDS011;10918;48.102;11.636;2024-02-28T10:54:51;38.30;;;25.15;;
21513;SDS011;10918;48.102;11.636;2024-02-28T10:57:23;39.83;;;24.77;;
21513;SDS011;10918;48.102;11.636;2024-02-28T10:59:50;36.58;;;25.20;;
21513;SDS011;10918;48.102;11.636;2024-02-28T11:02:16;41.00;;;25.65;;
21513;SDS011;10918;48.102;11.636;2024-02-28T11:04:42;41.35;;;25.08;;
21513;SDS011;10918;48.102;11.636;2024-02-28T11:07:09;36.38;;;24.15;;
21513;SDS011;10918;48.102;11.636;2024-02-28T11:09:35;36.40;;;22.45;;
21513;SDS011;10918;48.102;11.636;2024-02-28T11:12:03;30.00;;;21.58;;
21513;SDS011;10918;48.102;11.636;2024-02-28T11:14:30;32.55;;;20.50;;
21513;SDS011;10918;48.102;11.636;2024-02-28T11:16:59;32.97;;;21.38;;
21513;SDS011;10918;48.102;11.636;2024-02-28T11:19:27;32.00;;;22.23;;
21513;SDS011;10918;48.102;11.636;2024-02-28T11:21:53;34.95;;;22.40;;
21513;SDS011;10918;48.102;11.636;2024-02-28T11:24:22;32.67;;;22.05;;
21513;SDS011;10918;48.102;11.636;2024-02-28T11:26:49;34.20;;;23.30;;
21513;SDS011;10918;48.102;11.636;2024-02-28T11:29:16;36.00;;;21.85;;
21513;SDS011;10918;48.102;11.636;2024-02-28T11:31:42;32.40;;;21.85;;
21513;SDS011;10918;48.102;11.636;2024-02-28T11:34:08;28.98;;;21.55;;
21513;SDS011;10918;48.102;11.636;2024-02-28T11:36:34;34.13;;;22.90;;
21513;SDS011;10918;48.102;11.636;2024-02-28T11:39:01;32.97;;;21.85;;
21513;SDS011;10918;48.102;11.636;2024-02-28T11:41:28;35.10;;;23.95;;
21513;SDS011;10918;48.102;11.636;2024-02-28T11:43:54;37.80;;;22.67;;
21513;SDS011;10918;48.102;11.636;2024-02-28T11:46:20;33.97;;;23.55;;
21513;SDS011;10918;48.102;11.636;2024-02-28T11:48:46;33.10;;;22.45;;
21513;SDS011;10918;48.102;11.636;2024-02-28T11:51:12;32.20;;;23.23;;
21513;SDS011;10918;48.102;11.636;2024-02-28T11:53:38;32.78;;;22.45;;
21513;SDS011;10918;48.102;11.636;2024-02-28T11:56:04;33.20;;;22.58;;
21513;SDS011;10918;48.102;11.636;2024-02-28T11:58:30;38.35;;;23.10;;
21513;SDS011;10918;48.102;11.636;2024-02-28T12:00:56;36.55;;;23.50;;
21513;SDS011;10918;48.102;11.636;2024-02-28T12:03:22;35.88;;;24.00;;
21513;SDS011;10918;48.102;11.636;2024-02-28T12:05:49;35.15;;;23.88;;
21513;SDS011;10918;48.102;11.636;2024-02-28T12:08:17;34.90;;;23.05;;
21513;SDS011;10918;48.102;11.636;2024-02-28T12:10:44;35.67;;;22.80;;
21513;SDS011;10918;48.102;11.636;2024-02-28T12:13:10;37.33;;;24.27;;
21513;SDS011;10918;48.102;11.636;2024-02-28T12:15:38;33.55;;;22.35;;
21513;SDS011;10918;48.102;11.636;2024-02-28T12:18:09;36.55;;;23.65;;
21513;SDS011;10918;48.102;11.636;2024-02-28T12:20:35;34.03;;;23.77;;
21513;SDS011;10918;48.102;11.636;2024-02-28T12:23:04;36.58;;;24.35;;
21513;SDS011;10918;48.102;11.636;2024-02-28T12:25:31;36.75;;;24.63;;
21513;SDS011;10918;48.102;11.636;2024-02-28T12:27:57;35.78;;;24.27;;
21513;SDS011;10918;48.102;11.636;2024-02-28T12:30:23;35.50;;;24.05;;
21513;SDS011;10918;48.102;11.636;2024-02-28T12:32:49;38.15;;;25.02;;
21513;SDS011;10918;48.102;11.636;2024-02-28T12:35:15;34.35;;;24.65;;
21513;SDS011;10918;48.102;11.636;2024-02-28T12:37:41;40.13;;;25.83;;
21513;SDS011;10918;48.102;11.636;2024-02-28T12:40:07;36.33;;;25.92;;
21513;SDS011;10918;48.102;11.636;2024-02-28T12:42:33;36.65;;;24.48;;
21513;SDS011;10918;48.102;11.636;2024-02-28T12:44:59;34.25;;;24.38;;
21513;SDS011;10918;48.102;11.636;2024-02-28T12:47:25;37.55;;;23.42;;
21513;SDS011;10918;48.102;11.636;2024-02-28T12:49:51;31.83;;;23.05;;
21513;SDS011;10918;48.102;11.636;2024-02-28T12:52:17;36.50;;;24.42;;
21513;SDS011;10918;48.102;11.636;2024-02-28T12:54:43;34.97;;;23.63;;
21513;SDS011;10918;48.102;11.636;2024-02-28T12:57:09;36.42;;;23.55;;
21513;SDS011;10918;48.102;11.636;2024-02-28T12:59:38;37.08;;;23.13;;
21513;SDS011;10918;48.102;11.636;2024-02-28T13:02:05;36.63;;;24.15;;
21513;SDS011;10918;48.102;11.636;2024-02-28T13:04:31;36.15;;;21.58;;
21513;SDS011;10918;48.102;11.636;2024-02-28T13:06:57;32.85;;;22.58;;
21513;SDS011;10918;48.102;11.636;2024-02-28T13:09:23;34.72;;;23.35;;
21513;SDS011;10918;48.102;11.636;2024-02-28T13:11:49;36.33;;;24.08;;
21513;SDS011;10918;48.102;11.636;2024-02-28T13:14:15;33.53;;;22.25;;
21513;SDS011;10918;48.102;11.636;2024-02-28T13:16:41;33.50;;;22.58;;
21513;SDS011;10918;48.102;11.636;2024-02-28T13:19:07;37.28;;;23.00;;
21513;SDS011;10918;48.102;11.636;2024-02-28T13:21:33;32.60;;;21.88;;
21513;SDS011;10918;48.102;11.636;2024-02-28T13:24:00;33.97;;;22.80;;
21513;SDS011;10918;48.102;11.636;2024-02-28T13:26:27;33.15;;;22.92;;
21513;SDS011;10918;48.102;11.636;2024-02-28T13:28:53;32.70;;;22.35;;
21513;SDS011;10918;48.102;11.636;2024-02-28T13:31:19;36.10;;;24.15;;
21513;SDS011;10918;48.102;11.636;2024-02-28T13:33:45;35.78;;;22.58;;
21513;SDS011;10918;48.102;11.636;2024-02-28T13:36:13;31.42;;;20.85;;
21513;SDS011;10918;48.102;11.636;2024-02-28T13:38:39;32.38;;;22.48;;
21513;SDS011;10918;48.102;11.636;2024-02-28T13:41:05;32.63;;;22.35;;
21513;SDS011;10918;48.102;11.636;2024-02-28T13:43:31;31.58;;;21.27;;
21513;SDS011;10918;48.102;11.636;2024-02-28T13:45:58;29.85;;;20.35;;
21513;SDS011;10918;48.102;11.636;2024-02-28T13:48:27;29.42;;;21.17;;
21513;SDS011;10918;48.102;11.636;2024-02-28T13:50:58;35.25;;;22.15;;
21513;SDS011;10918;48.102;11.636;2024-02-28T13:53:24;31.73;;;21.98;;
21513;SDS011;10918;48.102;11.636;2024-02-28T13:55:51;31.50;;;21.13;;
21513;SDS011;10918;48.102;11.636;2024-02-28T13:58:17;29.70;;;21.58;;
21513;SDS011;10918;48.102;11.636;2024-02-28T14:00:43;31.08;;;20.58;;
21513;SDS011;10918;48.102;11.636;2024-02-28T14:03:10;34.47;;;24.17;;